createdAt,value
2018-02-16T00:00:45.552Z,2.30
2018-02-16T00:03:12.477Z,2.20
2018-02-16T00:05:40.156Z,2.10
2018-02-16T00:08:07.089Z,2.10
2018-02-16T00:10:34.761Z,2.10
2018-02-16T00:13:01.715Z,2.10
2018-02-16T00:15:28.632Z,2.10
2018-02-16T00:17:56.333Z,2.10
2018-02-16T00:20:23.240Z,2.10
2018-02-16T00:22:50.169Z,2.00
2018-02-16T00:25:17.085Z,2.00
2018-02-16T00:27:44.006Z,2.10
2018-02-16T00:30:10.941Z,2.00
2018-02-16T00:32:37.863Z,2.00
2018-02-16T00:35:05.556Z,2.00
2018-02-16T00:37:32.492Z,2.00
2018-02-16T00:39:59.400Z,2.00
2018-02-16T00:42:27.095Z,2.10
2018-02-16T00:44:54.002Z,2.00
2018-02-16T00:47:21.709Z,2.20
2018-02-16T00:49:48.623Z,2.20
2018-02-16T00:52:16.313Z,2.30
2018-02-16T00:54:43.227Z,2.20
2018-02-16T00:57:10.917Z,2.30
2018-02-16T00:59:37.840Z,2.30
2018-02-16T01:02:05.533Z,2.20
2018-02-16T01:04:32.456Z,2.10
2018-02-16T01:06:59.362Z,2.10
2018-02-16T01:09:26.291Z,2.10
2018-02-16T01:11:53.215Z,2.10
2018-02-16T01:14:20.133Z,2.20
2018-02-16T01:16:47.043Z,2.10
2018-02-16T01:19:13.991Z,2.10
2018-02-16T01:21:40.908Z,2.00
2018-02-16T01:24:07.841Z,2.00
2018-02-16T01:26:34.752Z,2.10
2018-02-16T01:29:01.720Z,2.00
2018-02-16T01:31:29.364Z,1.90
2018-02-16T01:33:56.297Z,1.90
2018-02-16T01:36:23.223Z,2.00
2018-02-16T01:38:50.939Z,1.90
2018-02-16T01:41:17.854Z,1.90
2018-02-16T01:43:44.788Z,1.90
2018-02-16T01:46:12.464Z,1.80
2018-02-16T01:48:39.391Z,1.80
2018-02-16T01:51:07.068Z,1.80
2018-02-16T01:53:33.993Z,1.70
2018-02-16T01:56:01.674Z,1.80
2018-02-16T01:58:28.601Z,1.80
2018-02-16T02:00:56.276Z,1.80
2018-02-16T02:03:23.204Z,1.80
2018-02-16T02:05:50.877Z,1.70
2018-02-16T02:08:17.799Z,1.70
2018-02-16T02:10:44.719Z,1.80
2018-02-16T02:13:11.628Z,1.80
2018-02-16T02:15:38.543Z,1.80
2018-02-16T02:18:06.217Z,1.70
2018-02-16T02:20:33.897Z,1.70
2018-02-16T02:23:00.803Z,1.70
2018-02-16T02:25:27.721Z,1.70
2018-02-16T02:27:54.641Z,1.70
2018-02-16T02:30:21.569Z,1.60
2018-02-16T02:32:48.486Z,1.70
2018-02-16T02:35:16.189Z,1.60
2018-02-16T02:37:43.094Z,1.60
2018-02-16T02:40:10.017Z,1.70
2018-02-16T02:42:36.933Z,1.60
2018-02-16T02:45:03.870Z,1.50
2018-02-16T02:47:30.780Z,1.40
2018-02-16T02:49:58.472Z,1.50
2018-02-16T02:52:25.380Z,1.50
2018-02-16T02:54:53.060Z,1.60
2018-02-16T02:57:19.967Z,1.60
2018-02-16T02:59:46.881Z,1.60
2018-02-16T03:02:13.787Z,1.60
2018-02-16T03:04:40.715Z,1.60
2018-02-16T03:07:08.385Z,1.50
2018-02-16T03:09:36.073Z,1.50
2018-02-16T03:12:02.984Z,1.60
2018-02-16T03:14:30.689Z,1.50
2018-02-16T03:16:57.591Z,1.60
2018-02-16T03:19:25.281Z,1.50
2018-02-16T03:21:52.189Z,1.50
2018-02-16T03:24:19.876Z,1.50
2018-02-16T03:26:46.799Z,1.50
2018-02-16T03:29:13.726Z,1.40
2018-02-16T03:31:40.651Z,1.40
2018-02-16T03:34:07.556Z,1.30
2018-02-16T03:36:34.492Z,1.40
2018-02-16T03:39:01.400Z,1.40
2018-02-16T03:41:28.316Z,1.40
2018-02-16T03:43:55.245Z,1.40
2018-02-16T03:46:22.181Z,1.30
2018-02-16T03:48:49.093Z,1.30
2018-02-16T03:51:16.795Z,1.20
2018-02-16T03:53:43.704Z,1.30
2018-02-16T03:56:11.396Z,1.10
2018-02-16T03:58:38.311Z,1.10
2018-02-16T04:01:05.997Z,1.00
2018-02-16T04:03:32.918Z,1.00
2018-02-16T04:06:00.612Z,1.00
2018-02-16T04:08:27.528Z,1.00
2018-02-16T04:10:55.225Z,1.00
2018-02-16T04:13:22.127Z,0.90
2018-02-16T04:15:49.821Z,0.80
2018-02-16T04:18:16.727Z,0.80
2018-02-16T04:20:43.645Z,0.80
2018-02-16T04:23:10.555Z,0.80
2018-02-16T04:25:37.474Z,0.80
2018-02-16T04:28:05.144Z,0.80
2018-02-16T04:30:32.072Z,0.70
2018-02-16T04:32:59.739Z,0.70
2018-02-16T04:35:27.421Z,0.70
2018-02-16T04:37:54.331Z,0.60
2018-02-16T04:40:21.257Z,0.60
2018-02-16T04:42:48.168Z,0.70
2018-02-16T04:45:15.101Z,0.60
2018-02-16T04:47:42.004Z,0.60
2018-02-16T04:50:08.917Z,0.70
2018-02-16T04:52:35.829Z,0.70
2018-02-16T04:55:02.761Z,0.70
2018-02-16T04:57:30.433Z,0.60
2018-02-16T04:59:57.381Z,0.60
2018-02-16T05:02:24.292Z,0.60
2018-02-16T05:04:51.213Z,0.60
2018-02-16T05:07:18.136Z,0.60
2018-02-16T05:09:45.065Z,0.60
2018-02-16T05:12:11.999Z,0.60
2018-02-16T05:14:38.955Z,0.60
2018-02-16T05:17:05.878Z,0.60
2018-02-16T05:19:32.784Z,0.60
2018-02-16T05:21:59.712Z,0.60
2018-02-16T05:24:26.620Z,0.60
2018-02-16T05:26:53.552Z,0.60
2018-02-16T05:29:21.229Z,0.60
2018-02-16T05:31:48.146Z,0.50
2018-02-16T05:34:15.846Z,0.60
2018-02-16T05:36:42.775Z,0.60
2018-02-16T05:39:09.696Z,0.60
2018-02-16T05:41:37.379Z,0.60
2018-02-16T05:44:04.283Z,0.60
2018-02-16T05:46:31.202Z,0.60
2018-02-16T05:48:58.108Z,0.60
2018-02-16T05:51:25.032Z,0.70
2018-02-16T05:53:52.714Z,0.70
2018-02-16T05:56:19.646Z,0.70
2018-02-16T05:58:47.330Z,0.80
2018-02-16T06:01:14.240Z,0.80
2018-02-16T06:03:41.168Z,0.70
2018-02-16T06:06:08.839Z,0.80
2018-02-16T06:08:35.752Z,0.80
2018-02-16T06:11:02.656Z,0.90
2018-02-16T06:13:29.579Z,0.80
2018-02-16T06:15:56.493Z,0.90
2018-02-16T06:18:23.415Z,1.00
2018-02-16T06:20:50.335Z,0.90
2018-02-16T06:23:17.244Z,0.90
2018-02-16T06:25:44.170Z,0.90
2018-02-16T06:28:11.080Z,1.00
2018-02-16T06:30:37.999Z,1.00
2018-02-16T06:33:05.677Z,1.00
2018-02-16T06:35:32.608Z,0.90
2018-02-16T06:38:00.281Z,0.90
2018-02-16T06:40:27.205Z,0.90
2018-02-16T06:42:54.884Z,1.00
2018-02-16T06:45:21.813Z,1.00
2018-02-16T06:47:49.494Z,1.00
2018-02-16T06:50:16.416Z,1.00
2018-02-16T06:52:44.096Z,1.10
2018-02-16T06:55:11.024Z,1.10
2018-02-16T06:57:38.700Z,1.10
2018-02-16T07:00:05.634Z,1.10
2018-02-16T07:02:33.313Z,1.10
2018-02-16T07:05:00.242Z,1.10
2018-02-16T07:07:27.962Z,1.10
2018-02-16T07:09:54.863Z,1.10
2018-02-16T07:12:21.775Z,1.10
2018-02-16T07:14:48.702Z,1.10
2018-02-16T07:17:15.611Z,1.20
2018-02-16T07:19:42.561Z,1.20
2018-02-16T07:22:09.487Z,1.30
2018-02-16T07:24:36.395Z,1.30
2018-02-16T07:27:03.319Z,1.40
2018-02-16T07:29:30.231Z,1.40
2018-02-16T07:31:57.192Z,1.40
2018-02-16T07:34:24.096Z,1.50
2018-02-16T07:36:51.793Z,1.60
2018-02-16T07:39:18.705Z,1.60
2018-02-16T07:41:45.627Z,1.60
2018-02-16T07:44:12.532Z,1.60
2018-02-16T07:46:40.223Z,1.60
2018-02-16T07:49:07.132Z,1.70
2018-02-16T07:51:34.052Z,1.70
2018-02-16T07:54:00.956Z,1.80
2018-02-16T07:56:27.893Z,1.90
2018-02-16T07:58:54.804Z,2.00
2018-02-16T08:01:21.741Z,2.00
2018-02-16T08:03:48.672Z,2.00
2018-02-16T08:06:15.597Z,1.90
2018-02-16T08:08:43.276Z,2.10
2018-02-16T08:11:10.207Z,2.10
2018-02-16T08:13:37.880Z,2.20
2018-02-16T08:16:04.804Z,2.20
2018-02-16T08:18:32.481Z,2.30
2018-02-16T08:21:00.164Z,2.40
2018-02-16T08:23:27.072Z,2.30
2018-02-16T08:25:54.759Z,2.60
2018-02-16T08:28:21.668Z,2.60
2018-02-16T08:30:48.606Z,2.70
2018-02-16T08:33:15.523Z,2.70
2018-02-16T08:35:42.445Z,2.80
2018-02-16T08:38:09.356Z,2.90
2018-02-16T08:40:37.054Z,3.10
2018-02-16T08:43:03.968Z,3.10
2018-02-16T08:45:31.711Z,3.20
2018-02-16T08:47:58.626Z,3.20
2018-02-16T08:50:25.540Z,3.20
2018-02-16T08:52:52.444Z,3.30
2018-02-16T08:55:19.396Z,3.40
2018-02-16T08:57:47.080Z,3.60
2018-02-16T09:00:14.779Z,3.60
2018-02-16T09:02:41.693Z,3.60
2018-02-16T09:05:08.613Z,3.70
2018-02-16T09:07:36.425Z,4.00
2018-02-16T09:10:03.365Z,4.00
2018-02-16T09:12:30.282Z,3.90
2018-02-16T09:14:57.209Z,3.90
2018-02-16T09:17:24.884Z,4.10
2018-02-16T09:19:52.594Z,4.10
2018-02-16T09:22:19.528Z,4.10
2018-02-16T09:24:46.454Z,4.10
2018-02-16T09:27:13.376Z,4.20
2018-02-16T09:29:41.078Z,4.40
2018-02-16T09:32:07.992Z,4.40
2018-02-16T09:34:35.675Z,4.80
2018-02-16T09:37:04.746Z,4.70
2018-02-16T09:39:31.981Z,4.90
2018-02-16T09:41:59.680Z,4.90
2018-02-16T09:44:26.583Z,4.80
2018-02-16T09:46:53.510Z,4.90
2018-02-16T09:49:20.467Z,4.80
2018-02-16T09:51:47.400Z,5.00
2018-02-16T09:54:14.318Z,5.20
2018-02-16T09:56:41.261Z,5.20
2018-02-16T09:59:08.172Z,5.20
2018-02-16T10:01:35.870Z,4.90
2018-02-16T10:04:02.776Z,4.90
2018-02-16T10:06:30.475Z,4.90
2018-02-16T10:08:57.403Z,4.90
2018-02-16T10:11:24.336Z,5.00
2018-02-16T10:13:51.237Z,5.20
2018-02-16T10:16:18.164Z,5.30
2018-02-16T10:18:45.849Z,5.50
2018-02-16T10:21:12.778Z,5.50
2018-02-16T10:23:39.701Z,5.50
2018-02-16T10:26:06.619Z,5.40
2018-02-16T10:28:33.530Z,5.30
2018-02-16T10:31:00.452Z,5.40
2018-02-16T10:33:27.352Z,5.50
2018-02-16T10:35:54.296Z,5.70
2018-02-16T10:38:21.200Z,5.70
2018-02-16T10:40:48.129Z,5.90
2018-02-16T10:43:15.796Z,5.80
2018-02-16T10:45:42.727Z,5.80
2018-02-16T10:48:09.640Z,5.90
2018-02-16T10:50:36.583Z,5.80
2018-02-16T10:53:03.488Z,5.90
2018-02-16T10:55:30.440Z,5.90
2018-02-16T10:57:57.348Z,6.10
2018-02-16T11:00:24.292Z,6.10
2018-02-16T11:02:51.215Z,6.00
2018-02-16T11:05:18.136Z,6.10
2018-02-16T11:07:45.821Z,6.10
2018-02-16T11:10:12.746Z,6.10
2018-02-16T11:12:39.658Z,6.10
2018-02-16T11:15:06.573Z,6.30
2018-02-16T11:17:33.476Z,6.20
2018-02-16T11:20:00.403Z,6.20
2018-02-16T11:22:28.097Z,6.10
2018-02-16T11:24:55.024Z,6.00
2018-02-16T11:27:22.705Z,6.70
2018-02-16T11:29:49.627Z,6.60
2018-02-16T11:32:17.318Z,6.60
2018-02-16T11:34:44.284Z,6.60
2018-02-16T11:37:11.220Z,6.70
2018-02-16T11:39:38.148Z,7.00
2018-02-16T11:42:05.877Z,7.00
2018-02-16T11:44:33.568Z,7.00
2018-02-16T11:47:00.483Z,6.90
2018-02-16T11:49:28.213Z,6.30
2018-02-16T11:51:55.118Z,6.30
2018-02-16T11:54:22.042Z,6.00
2018-02-16T11:56:49.719Z,6.30
2018-02-16T11:59:16.653Z,6.30
2018-02-16T12:01:44.343Z,6.40
2018-02-16T12:04:11.277Z,6.40
2018-02-16T12:06:38.224Z,6.30
2018-02-16T12:09:05.151Z,6.40
2018-02-16T12:11:32.841Z,6.20
2018-02-16T12:13:59.864Z,6.20
2018-02-16T12:16:26.813Z,6.20
2018-02-16T12:18:53.728Z,6.20
2018-02-16T12:21:20.659Z,6.20
2018-02-16T12:23:47.587Z,6.30
2018-02-16T12:26:14.514Z,6.50
2018-02-16T12:28:41.423Z,6.40
2018-02-16T12:31:08.347Z,6.30
2018-02-16T12:33:35.255Z,6.40
2018-02-16T12:36:02.182Z,6.30
2018-02-16T12:38:29.100Z,6.50
2018-02-16T12:40:56.787Z,6.40
2018-02-16T12:43:23.691Z,6.30
2018-02-16T12:45:51.379Z,6.40
2018-02-16T12:48:18.300Z,6.40
2018-02-16T12:50:45.989Z,6.30
2018-02-16T12:53:12.906Z,6.30
2018-02-16T12:55:40.612Z,6.50
2018-02-16T12:58:07.549Z,6.40
2018-02-16T13:00:34.473Z,6.40
2018-02-16T13:03:01.381Z,6.30
2018-02-16T13:05:28.314Z,6.20
2018-02-16T13:07:55.220Z,6.30
2018-02-16T13:10:22.169Z,6.40
2018-02-16T13:12:49.076Z,6.30
2018-02-16T13:15:16.769Z,6.30
2018-02-16T13:17:43.681Z,6.30
2018-02-16T13:20:11.368Z,6.30
2018-02-16T13:22:38.274Z,6.30
2018-02-16T13:25:05.207Z,6.40
2018-02-16T13:27:32.113Z,6.70
2018-02-16T13:29:59.036Z,6.50
2018-02-16T13:32:25.940Z,6.90
2018-02-16T13:34:52.876Z,6.80
2018-02-16T13:37:19.793Z,6.50
2018-02-16T13:39:46.732Z,6.60
2018-02-16T13:42:13.671Z,7.00
2018-02-16T13:44:40.600Z,6.70
2018-02-16T13:47:07.527Z,6.50
2018-02-16T13:49:34.440Z,6.20
2018-02-16T13:52:02.120Z,6.50
2018-02-16T13:54:29.057Z,6.40
2018-02-16T13:56:55.968Z,6.40
2018-02-16T13:59:22.888Z,6.10
2018-02-16T14:01:49.808Z,6.00
2018-02-16T14:04:16.727Z,6.00
2018-02-16T14:06:43.644Z,6.00
2018-02-16T14:09:10.588Z,6.00
2018-02-16T14:11:37.528Z,6.00
2018-02-16T14:14:04.464Z,6.00
2018-02-16T14:16:34.193Z,5.90
2018-02-16T14:19:01.125Z,6.00
2018-02-16T14:21:28.053Z,6.00
2018-02-16T14:23:54.988Z,6.00
2018-02-16T14:26:22.669Z,5.90
2018-02-16T14:28:49.592Z,5.90
2018-02-16T14:31:16.513Z,5.90
2018-02-16T14:33:43.440Z,5.90
2018-02-16T14:36:10.359Z,5.90
2018-02-16T14:38:37.289Z,5.90
2018-02-16T14:41:04.199Z,5.90
2018-02-16T14:43:31.165Z,5.90
2018-02-16T16:07:55.441Z,5.80
2018-02-16T16:10:23.241Z,5.10
2018-02-16T16:12:50.940Z,5.00
2018-02-16T16:15:17.877Z,5.00
2018-02-16T16:17:44.857Z,5.00
2018-02-16T16:20:11.835Z,4.90
2018-02-16T16:22:39.774Z,4.90
2018-02-16T16:25:06.800Z,4.90
2018-02-16T16:27:33.722Z,4.80
2018-02-16T16:30:00.705Z,4.70
2018-02-16T16:32:27.728Z,4.70
2018-02-16T16:34:54.676Z,4.70
2018-02-16T16:37:21.625Z,4.50
2018-02-16T16:39:48.683Z,4.50
2018-02-16T16:42:15.616Z,4.50
2018-02-16T16:44:42.665Z,4.50
2018-02-16T16:47:10.237Z,4.60
2018-02-16T16:49:37.272Z,4.70
2018-02-16T16:52:04.191Z,4.60
2018-02-16T16:54:31.104Z,4.80
2018-02-16T16:56:58.812Z,4.80
2018-02-16T16:59:25.736Z,4.70
2018-02-16T17:01:53.407Z,4.70
2018-02-16T17:04:20.333Z,4.70
2018-02-16T17:06:48.008Z,4.50
2018-02-16T17:09:14.944Z,4.60
2018-02-16T17:11:41.861Z,4.60
2018-02-16T17:14:08.916Z,4.60
2018-02-16T17:16:36.607Z,4.60
2018-02-16T17:19:03.556Z,4.60
2018-02-16T17:21:30.919Z,4.60
2018-02-16T17:23:57.891Z,4.60
2018-02-16T17:26:24.805Z,4.60
2018-02-16T17:28:51.745Z,4.60
2018-02-16T17:31:18.729Z,4.50
2018-02-16T17:33:45.636Z,4.60
2018-02-16T18:58:09.144Z,4.50
2018-02-16T19:00:36.064Z,4.10
2018-02-16T19:03:02.968Z,4.10
2018-02-16T19:05:29.883Z,4.00
2018-02-16T19:07:56.837Z,4.00
2018-02-16T19:10:23.786Z,4.00
2018-02-16T19:12:50.717Z,4.00
2018-02-16T19:15:17.710Z,4.00
2018-02-16T19:17:45.428Z,4.10
2018-02-16T19:20:12.357Z,4.00
2018-02-16T19:22:39.287Z,4.00
2018-02-16T19:25:06.197Z,4.00
2018-02-16T19:27:33.122Z,4.00
2018-02-16T19:30:00.054Z,4.00
2018-02-16T19:32:26.991Z,4.00
2018-02-16T19:34:53.912Z,4.00
2018-02-16T19:37:20.923Z,4.00
2018-02-16T19:39:47.852Z,4.00
2018-02-16T19:42:14.838Z,4.00
2018-02-16T19:44:41.752Z,4.00
2018-02-16T19:47:08.675Z,3.90
2018-02-16T19:49:36.601Z,4.00
2018-02-16T19:52:03.537Z,3.90
2018-02-16T19:54:30.452Z,3.90
2018-02-16T19:56:57.391Z,3.90
2018-02-16T19:59:24.295Z,3.90
2018-02-16T20:01:51.228Z,3.90
2018-02-16T20:04:18.137Z,3.90
2018-02-16T20:06:45.060Z,3.90
2018-02-16T20:09:11.983Z,3.90
2018-02-16T20:11:38.914Z,3.90
2018-02-16T20:14:05.840Z,3.90
2018-02-16T20:16:32.741Z,4.00
2018-02-16T20:18:59.634Z,4.00
2018-02-16T20:21:26.542Z,4.00
2018-02-16T20:23:53.476Z,3.90
2018-02-16T20:26:21.393Z,4.00
2018-02-16T20:28:48.317Z,4.00
2018-02-16T20:31:15.291Z,3.90
2018-02-16T20:33:42.216Z,3.90
2018-02-16T20:36:09.155Z,3.90
2018-02-16T20:38:36.073Z,3.90
2018-02-16T20:41:03.014Z,3.90
2018-02-16T20:43:29.959Z,3.90
2018-02-16T20:45:56.913Z,3.80
2018-02-16T20:48:23.832Z,3.80
2018-02-16T20:50:50.773Z,3.80
2018-02-16T20:53:17.693Z,3.80
2018-02-16T20:55:44.612Z,3.80
2018-02-16T20:58:11.529Z,3.70
2018-02-16T21:00:38.460Z,3.70
2018-02-16T21:03:05.400Z,3.70
2018-02-16T21:05:32.328Z,3.70
2018-02-16T21:08:00.020Z,3.60
2018-02-16T21:10:26.971Z,3.70
2018-02-16T21:12:53.965Z,3.70
2018-02-16T21:15:21.661Z,3.70
2018-02-16T21:17:48.572Z,3.70
2018-02-16T21:20:16.271Z,3.60
2018-02-16T21:22:43.180Z,3.60
2018-02-16T21:25:11.898Z,3.50
2018-02-16T21:27:38.820Z,3.40
2018-02-16T21:30:05.768Z,3.50
2018-02-16T21:32:35.348Z,3.40
2018-02-16T21:35:02.278Z,3.40
2018-02-16T21:37:29.199Z,3.30
2018-02-16T21:39:56.165Z,3.30
2018-02-16T21:42:23.093Z,3.30
2018-02-16T21:44:50.038Z,3.30
2018-02-16T21:47:16.969Z,3.30
2018-02-16T21:49:43.906Z,3.30
2018-02-16T21:52:10.825Z,3.30
2018-02-16T21:54:37.779Z,3.30
2018-02-16T21:57:05.630Z,3.40
2018-02-16T21:59:32.641Z,3.40
2018-02-16T22:01:59.544Z,3.40
2018-02-16T22:04:26.477Z,3.40
2018-02-16T22:06:53.375Z,3.40
2018-02-16T22:09:20.300Z,3.30
2018-02-16T22:11:47.234Z,3.30
2018-02-16T22:14:14.169Z,3.30
2018-02-16T22:16:41.084Z,3.40
2018-02-16T22:19:08.790Z,3.50
2018-02-16T22:21:35.703Z,3.40
2018-02-16T22:24:02.625Z,3.40
2018-02-16T22:26:30.293Z,3.50
2018-02-16T22:28:58.169Z,3.50
2018-02-16T22:31:25.103Z,3.50
2018-02-16T22:33:52.780Z,3.70
2018-02-16T22:36:19.712Z,3.70
2018-02-16T22:38:47.384Z,3.60
2018-02-16T22:41:14.299Z,3.60
2018-02-16T22:43:41.240Z,3.60
2018-02-16T22:46:08.164Z,3.70
2018-02-16T22:48:35.076Z,3.60
2018-02-16T22:51:01.995Z,3.70
2018-02-16T22:53:28.904Z,3.80
2018-02-16T22:55:55.832Z,3.70
2018-02-16T22:58:22.748Z,3.70
2018-02-16T23:00:49.680Z,3.70
2018-02-16T23:03:16.661Z,3.70
2018-02-16T23:05:43.596Z,3.90
2018-02-16T23:08:11.524Z,3.80
2018-02-16T23:10:39.216Z,3.70
2018-02-16T23:13:06.182Z,3.70
2018-02-16T23:15:33.230Z,3.70
2018-02-16T23:18:00.146Z,3.70
2018-02-16T23:20:27.068Z,3.70
2018-02-16T23:22:53.999Z,3.80
2018-02-16T23:25:21.700Z,3.80
2018-02-16T23:27:49.541Z,3.70
2018-02-16T23:30:17.228Z,3.80
2018-02-16T23:32:44.136Z,3.80
2018-02-16T23:35:12.889Z,3.80
2018-02-16T23:37:39.808Z,3.80
2018-02-16T23:40:06.760Z,3.90
2018-02-16T23:42:33.623Z,3.70
2018-02-16T23:45:00.557Z,3.80
2018-02-16T23:47:28.309Z,3.70
2018-02-16T23:49:55.252Z,3.70
2018-02-16T23:52:22.941Z,3.80
2018-02-16T23:54:50.808Z,3.70
2018-02-16T23:57:18.493Z,3.80
2018-02-16T23:59:45.442Z,3.80
